Main page
METAR-TAF:

METAR-TAF

Airports :

P11-b, Netherlands

Oil platform

latitude: 52-21-36N, longitude: 3-20-30E, elevation: 24 m

Current weather observation

The report was made 11 minutes ago, at 21:25 UTC
Wind 34 kt from the South/Southwest
Temperature 10°C
Humidity 93%
Pressure 1012 hPa
Visibility: 8000 m
Scattered clouds at a height of 300 ft
Broken clouds at a height of 400 ft
Broken clouds at a height of 700 ft

METAR: EHPG 232125Z AUTO 21034KT 8000 SCT003 BKN004 BKN007 10/09 Q1012 W///H///

Time: 22:36 (21:36 UTC)


TAF: missing

Weather observations and forecasts of more than 4000 airports (METAR and TAF reports).

The available stations are represented by yellow and red dots on the map.

Hover mouse over dot to see the name of the station.

Then click to see weather observations and forecasts.

To change the map : click on the green buttons with a black cross to zoom in, on the green button with a dash to zoom out, or on the green arrows for adjacent maps.


METAR-TAF: